sensor_id;sensor_type;location;lat;lon;timestamp;P1;durP1;ratioP1;P2;durP2;ratioP2
15295;SDS011;7749;49.964;7.890;2023-06-22T00:00:33;7.10;;;6.40;;
15295;SDS011;7749;49.964;7.890;2023-06-22T00:03:01;7.30;;;6.60;;
15295;SDS011;7749;49.964;7.890;2023-06-22T00:05:37;7.13;;;6.43;;
15295;SDS011;7749;49.964;7.890;2023-06-22T00:08:05;7.93;;;7.03;;
15295;SDS011;7749;49.964;7.890;2023-06-22T00:10:32;7.88;;;7.18;;
15295;SDS011;7749;49.964;7.890;2023-06-22T00:13:03;7.18;;;6.07;;
15295;SDS011;7749;49.964;7.890;2023-06-22T00:15:31;7.63;;;6.50;;
15295;SDS011;7749;49.964;7.890;2023-06-22T00:17:58;7.53;;;6.82;;
15295;SDS011;7749;49.964;7.890;2023-06-22T00:20:28;7.53;;;6.70;;
15295;SDS011;7749;49.964;7.890;2023-06-22T00:22:57;7.53;;;6.82;;
15295;SDS011;7749;49.964;7.890;2023-06-22T00:25:25;7.63;;;6.80;;
15295;SDS011;7749;49.964;7.890;2023-06-22T00:27:53;8.02;;;7.32;;
15295;SDS011;7749;49.964;7.890;2023-06-22T00:30:21;7.50;;;6.82;;
15295;SDS011;7749;49.964;7.890;2023-06-22T00:32:49;7.88;;;7.18;;
15295;SDS011;7749;49.964;7.890;2023-06-22T00:35:16;8.13;;;7.32;;
15295;SDS011;7749;49.964;7.890;2023-06-22T00:37:44;7.85;;;7.15;;
15295;SDS011;7749;49.964;7.890;2023-06-22T00:40:11;7.95;;;7.25;;
15295;SDS011;7749;49.964;7.890;2023-06-22T00:42:42;7.85;;;7.00;;
15295;SDS011;7749;49.964;7.890;2023-06-22T00:45:09;8.45;;;7.75;;
15295;SDS011;7749;49.964;7.890;2023-06-22T00:47:37;8.45;;;7.65;;
15295;SDS011;7749;49.964;7.890;2023-06-22T00:50:05;8.30;;;7.32;;
15295;SDS011;7749;49.964;7.890;2023-06-22T00:52:35;8.63;;;7.75;;
15295;SDS011;7749;49.964;7.890;2023-06-22T00:55:03;8.98;;;8.07;;
15295;SDS011;7749;49.964;7.890;2023-06-22T00:57:32;9.40;;;8.40;;
15295;SDS011;7749;49.964;7.890;2023-06-22T01:00:03;10.10;;;9.10;;
15295;SDS011;7749;49.964;7.890;2023-06-22T01:02:35;9.02;;;8.05;;
15295;SDS011;7749;49.964;7.890;2023-06-22T01:05:05;9.65;;;8.25;;
15295;SDS011;7749;49.964;7.890;2023-06-22T01:07:37;8.77;;;7.93;;
15295;SDS011;7749;49.964;7.890;2023-06-22T01:16:10;10.05;;;8.43;;
15295;SDS011;7749;49.964;7.890;2023-06-22T01:18:44;9.25;;;8.35;;
15295;SDS011;7749;49.964;7.890;2023-06-22T01:21:17;9.55;;;8.60;;
15295;SDS011;7749;49.964;7.890;2023-06-22T01:29:50;10.13;;;8.98;;
15295;SDS011;7749;49.964;7.890;2023-06-22T01:32:19;9.15;;;8.20;;
15295;SDS011;7749;49.964;7.890;2023-06-22T01:34:47;9.20;;;8.40;;
15295;SDS011;7749;49.964;7.890;2023-06-22T01:37:16;9.27;;;8.38;;
15295;SDS011;7749;49.964;7.890;2023-06-22T01:39:44;12.18;;;8.52;;
15295;SDS011;7749;49.964;7.890;2023-06-22T01:42:11;9.73;;;8.80;;
15295;SDS011;7749;49.964;7.890;2023-06-22T01:44:39;10.55;;;9.45;;
15295;SDS011;7749;49.964;7.890;2023-06-22T01:47:07;10.20;;;9.20;;
15295;SDS011;7749;49.964;7.890;2023-06-22T01:49:35;11.15;;;10.00;;
15295;SDS011;7749;49.964;7.890;2023-06-22T01:52:03;10.45;;;9.52;;
15295;SDS011;7749;49.964;7.890;2023-06-22T01:54:31;10.98;;;9.85;;
15295;SDS011;7749;49.964;7.890;2023-06-22T01:56:59;10.35;;;9.43;;
15295;SDS011;7749;49.964;7.890;2023-06-22T02:02:15;10.63;;;9.63;;
15295;SDS011;7749;49.964;7.890;2023-06-22T02:04:53;10.70;;;9.55;;
15295;SDS011;7749;49.964;7.890;2023-06-22T02:07:52;10.38;;;9.45;;
15295;SDS011;7749;49.964;7.890;2023-06-22T02:10:44;10.32;;;9.38;;
15295;SDS011;7749;49.964;7.890;2023-06-22T02:13:13;9.93;;;8.93;;
15295;SDS011;7749;49.964;7.890;2023-06-22T02:15:42;10.57;;;9.52;;
15295;SDS011;7749;49.964;7.890;2023-06-22T02:18:10;9.90;;;8.90;;
15295;SDS011;7749;49.964;7.890;2023-06-22T02:20:39;9.50;;;8.63;;
15295;SDS011;7749;49.964;7.890;2023-06-22T02:23:07;10.32;;;9.30;;
15295;SDS011;7749;49.964;7.890;2023-06-22T02:25:35;10.10;;;9.10;;
15295;SDS011;7749;49.964;7.890;2023-06-22T02:28:03;10.00;;;9.00;;
15295;SDS011;7749;49.964;7.890;2023-06-22T02:30:31;11.10;;;9.95;;
15295;SDS011;7749;49.964;7.890;2023-06-22T02:32:59;10.32;;;9.43;;
15295;SDS011;7749;49.964;7.890;2023-06-22T02:35:27;11.68;;;10.00;;
15295;SDS011;7749;49.964;7.890;2023-06-22T02:37:59;10.52;;;9.63;;
15295;SDS011;7749;49.964;7.890;2023-06-22T02:40:28;10.63;;;9.55;;
15295;SDS011;7749;49.964;7.890;2023-06-22T02:42:57;10.93;;;9.90;;
15295;SDS011;7749;49.964;7.890;2023-06-22T02:45:29;11.60;;;9.52;;
15295;SDS011;7749;49.964;7.890;2023-06-22T02:47:57;10.70;;;9.60;;
15295;SDS011;7749;49.964;7.890;2023-06-22T02:50:24;11.13;;;9.98;;
15295;SDS011;7749;49.964;7.890;2023-06-22T02:52:52;11.88;;;10.57;;
15295;SDS011;7749;49.964;7.890;2023-06-22T02:55:20;10.77;;;9.77;;
15295;SDS011;7749;49.964;7.890;2023-06-22T02:57:47;11.52;;;9.07;;
15295;SDS011;7749;49.964;7.890;2023-06-22T03:00:19;11.02;;;9.65;;
15295;SDS011;7749;49.964;7.890;2023-06-22T03:02:47;13.40;;;9.45;;
15295;SDS011;7749;49.964;7.890;2023-06-22T03:05:15;9.98;;;9.10;;
15295;SDS011;7749;49.964;7.890;2023-06-22T03:07:45;10.18;;;9.27;;
15295;SDS011;7749;49.964;7.890;2023-06-22T03:10:13;10.80;;;9.75;;
15295;SDS011;7749;49.964;7.890;2023-06-22T03:12:41;12.10;;;9.65;;
15295;SDS011;7749;49.964;7.890;2023-06-22T03:15:10;11.27;;;9.85;;
15295;SDS011;7749;49.964;7.890;2023-06-22T03:17:39;11.93;;;10.73;;
15295;SDS011;7749;49.964;7.890;2023-06-22T03:20:09;11.65;;;10.48;;
15295;SDS011;7749;49.964;7.890;2023-06-22T03:22:38;11.63;;;10.57;;
15295;SDS011;7749;49.964;7.890;2023-06-22T03:25:09;12.18;;;10.98;;
15295;SDS011;7749;49.964;7.890;2023-06-22T03:27:37;11.80;;;10.70;;
15295;SDS011;7749;49.964;7.890;2023-06-22T03:30:05;13.88;;;12.02;;
15295;SDS011;7749;49.964;7.890;2023-06-22T03:32:34;12.23;;;11.05;;
15295;SDS011;7749;49.964;7.890;2023-06-22T03:35:02;12.13;;;10.93;;
15295;SDS011;7749;49.964;7.890;2023-06-22T03:37:29;12.13;;;10.93;;
15295;SDS011;7749;49.964;7.890;2023-06-22T03:39:57;13.40;;;11.82;;
15295;SDS011;7749;49.964;7.890;2023-06-22T03:42:24;11.65;;;10.57;;
15295;SDS011;7749;49.964;7.890;2023-06-22T03:44:52;12.13;;;10.88;;
15295;SDS011;7749;49.964;7.890;2023-06-22T03:47:20;12.88;;;11.02;;
15295;SDS011;7749;49.964;7.890;2023-06-22T03:49:47;12.93;;;11.07;;
15295;SDS011;7749;49.964;7.890;2023-06-22T03:52:15;13.93;;;11.50;;
15295;SDS011;7749;49.964;7.890;2023-06-22T03:54:42;11.50;;;10.30;;
15295;SDS011;7749;49.964;7.890;2023-06-22T03:57:09;14.32;;;10.88;;
15295;SDS011;7749;49.964;7.890;2023-06-22T03:59:38;11.75;;;10.70;;
15295;SDS011;7749;49.964;7.890;2023-06-22T04:02:06;11.40;;;10.45;;
15295;SDS011;7749;49.964;7.890;2023-06-22T04:04:33;13.65;;;10.43;;
15295;SDS011;7749;49.964;7.890;2023-06-22T04:07:02;12.88;;;11.52;;
15295;SDS011;7749;49.964;7.890;2023-06-22T04:09:30;12.23;;;11.02;;
15295;SDS011;7749;49.964;7.890;2023-06-22T04:11:59;11.40;;;10.35;;
15295;SDS011;7749;49.964;7.890;2023-06-22T04:14:26;11.85;;;10.32;;
15295;SDS011;7749;49.964;7.890;2023-06-22T04:16:53;11.13;;;9.98;;
15295;SDS011;7749;49.964;7.890;2023-06-22T04:19:22;11.55;;;10.40;;
15295;SDS011;7749;49.964;7.890;2023-06-22T04:21:50;11.88;;;10.73;;
15295;SDS011;7749;49.964;7.890;2023-06-22T04:24:17;14.40;;;10.65;;
15295;SDS011;7749;49.964;7.890;2023-06-22T04:26:45;13.25;;;11.00;;
15295;SDS011;7749;49.964;7.890;2023-06-22T04:29:13;12.88;;;11.38;;
15295;SDS011;7749;49.964;7.890;2023-06-22T04:31:41;11.63;;;9.90;;
15295;SDS011;7749;49.964;7.890;2023-06-22T04:34:09;11.50;;;10.30;;
15295;SDS011;7749;49.964;7.890;2023-06-22T04:36:37;11.75;;;10.38;;
15295;SDS011;7749;49.964;7.890;2023-06-22T04:39:09;11.48;;;10.38;;
15295;SDS011;7749;49.964;7.890;2023-06-22T04:41:38;11.50;;;10.35;;
15295;SDS011;7749;49.964;7.890;2023-06-22T04:44:09;11.77;;;10.57;;
15295;SDS011;7749;49.964;7.890;2023-06-22T04:46:37;13.35;;;10.88;;
15295;SDS011;7749;49.964;7.890;2023-06-22T04:49:06;12.00;;;10.48;;
15295;SDS011;7749;49.964;7.890;2023-06-22T04:51:40;12.30;;;11.13;;
15295;SDS011;7749;49.964;7.890;2023-06-22T04:54:08;12.57;;;11.27;;
15295;SDS011;7749;49.964;7.890;2023-06-22T04:56:37;13.13;;;11.05;;
15295;SDS011;7749;49.964;7.890;2023-06-22T04:59:07;12.55;;;11.13;;
15295;SDS011;7749;49.964;7.890;2023-06-22T05:01:35;13.10;;;11.40;;
15295;SDS011;7749;49.964;7.890;2023-06-22T05:04:03;13.13;;;11.93;;
15295;SDS011;7749;49.964;7.890;2023-06-22T05:06:32;11.85;;;10.70;;
15295;SDS011;7749;49.964;7.890;2023-06-22T05:08:59;12.90;;;11.45;;
15295;SDS011;7749;49.964;7.890;2023-06-22T05:11:27;14.00;;;11.50;;
15295;SDS011;7749;49.964;7.890;2023-06-22T05:13:55;12.45;;;11.07;;
15295;SDS011;7749;49.964;7.890;2023-06-22T05:16:23;12.95;;;11.82;;
15295;SDS011;7749;49.964;7.890;2023-06-22T05:18:52;13.88;;;12.43;;
15295;SDS011;7749;49.964;7.890;2023-06-22T05:21:24;15.70;;;12.82;;
15295;SDS011;7749;49.964;7.890;2023-06-22T05:23:53;13.02;;;11.60;;
15295;SDS011;7749;49.964;7.890;2023-06-22T05:26:21;13.25;;;11.95;;
15295;SDS011;7749;49.964;7.890;2023-06-22T05:28:49;15.20;;;12.75;;
15295;SDS011;7749;49.964;7.890;2023-06-22T05:31:17;14.52;;;13.07;;
15295;SDS011;7749;49.964;7.890;2023-06-22T05:33:47;15.32;;;13.10;;
15295;SDS011;7749;49.964;7.890;2023-06-22T05:36:16;14.07;;;12.73;;
15295;SDS011;7749;49.964;7.890;2023-06-22T05:38:43;14.18;;;12.82;;
15295;SDS011;7749;49.964;7.890;2023-06-22T05:41:11;16.17;;;13.65;;
15295;SDS011;7749;49.964;7.890;2023-06-22T05:43:38;14.15;;;12.82;;
15295;SDS011;7749;49.964;7.890;2023-06-22T05:46:06;15.02;;;13.70;;
15295;SDS011;7749;49.964;7.890;2023-06-22T05:48:33;14.52;;;13.13;;
15295;SDS011;7749;49.964;7.890;2023-06-22T05:51:01;15.23;;;13.38;;
15295;SDS011;7749;49.964;7.890;2023-06-22T05:53:28;14.45;;;13.13;;
15295;SDS011;7749;49.964;7.890;2023-06-22T05:55:56;14.15;;;12.68;;
15295;SDS011;7749;49.964;7.890;2023-06-22T05:58:23;13.70;;;12.48;;
15295;SDS011;7749;49.964;7.890;2023-06-22T06:00:51;13.68;;;12.38;;
15295;SDS011;7749;49.964;7.890;2023-06-22T06:03:19;13.90;;;12.57;;
15295;SDS011;7749;49.964;7.890;2023-06-22T06:05:47;13.80;;;12.38;;
15295;SDS011;7749;49.964;7.890;2023-06-22T06:08:14;14.10;;;12.25;;
15295;SDS011;7749;49.964;7.890;2023-06-22T06:10:42;13.70;;;12.20;;
15295;SDS011;7749;49.964;7.890;2023-06-22T06:13:09;14.48;;;13.07;;
15295;SDS011;7749;49.964;7.890;2023-06-22T06:15:37;13.75;;;12.40;;
15295;SDS011;7749;49.964;7.890;2023-06-22T06:18:05;17.63;;;13.70;;
15295;SDS011;7749;49.964;7.890;2023-06-22T06:20:34;15.00;;;12.25;;
15295;SDS011;7749;49.964;7.890;2023-06-22T06:23:01;14.20;;;12.80;;
15295;SDS011;7749;49.964;7.890;2023-06-22T06:25:29;14.90;;;12.93;;
15295;SDS011;7749;49.964;7.890;2023-06-22T06:27:56;13.57;;;12.20;;
15295;SDS011;7749;49.964;7.890;2023-06-22T06:30:24;14.25;;;12.45;;
15295;SDS011;7749;49.964;7.890;2023-06-22T06:32:51;13.73;;;12.43;;
15295;SDS011;7749;49.964;7.890;2023-06-22T06:35:19;12.20;;;10.95;;
15295;SDS011;7749;49.964;7.890;2023-06-22T06:37:48;17.20;;;12.38;;
15295;SDS011;7749;49.964;7.890;2023-06-22T06:40:22;12.27;;;11.25;;
15295;SDS011;7749;49.964;7.890;2023-06-22T06:42:49;13.70;;;12.27;;
15295;SDS011;7749;49.964;7.890;2023-06-22T06:45:19;13.00;;;11.80;;
15295;SDS011;7749;49.964;7.890;2023-06-22T06:47:52;13.35;;;11.68;;
15295;SDS011;7749;49.964;7.890;2023-06-22T06:50:20;14.15;;;12.73;;
15295;SDS011;7749;49.964;7.890;2023-06-22T06:52:48;12.85;;;11.68;;
15295;SDS011;7749;49.964;7.890;2023-06-22T06:55:17;11.70;;;10.52;;
15295;SDS011;7749;49.964;7.890;2023-06-22T06:57:46;11.95;;;10.85;;
15295;SDS011;7749;49.964;7.890;2023-06-22T07:00:17;13.35;;;11.90;;
15295;SDS011;7749;49.964;7.890;2023-06-22T07:02:45;14.60;;;10.93;;
15295;SDS011;7749;49.964;7.890;2023-06-22T07:05:15;12.85;;;11.35;;
15295;SDS011;7749;49.964;7.890;2023-06-22T07:07:43;13.02;;;11.82;;
15295;SDS011;7749;49.964;7.890;2023-06-22T07:10:11;12.35;;;11.10;;
15295;SDS011;7749;49.964;7.890;2023-06-22T07:12:38;11.95;;;10.75;;
15295;SDS011;7749;49.964;7.890;2023-06-22T07:15:07;12.52;;;11.32;;
15295;SDS011;7749;49.964;7.890;2023-06-22T07:17:37;12.10;;;10.85;;
15295;SDS011;7749;49.964;7.890;2023-06-22T07:20:07;11.77;;;10.38;;
15295;SDS011;7749;49.964;7.890;2023-06-22T07:22:38;11.77;;;10.48;;
15295;SDS011;7749;49.964;7.890;2023-06-22T07:25:06;11.20;;;10.15;;
15295;SDS011;7749;49.964;7.890;2023-06-22T07:27:43;13.85;;;11.50;;
15295;SDS011;7749;49.964;7.890;2023-06-22T07:30:12;12.70;;;10.98;;
15295;SDS011;7749;49.964;7.890;2023-06-22T07:32:40;12.75;;;10.20;;
15295;SDS011;7749;49.964;7.890;2023-06-22T07:35:08;13.93;;;12.05;;
15295;SDS011;7749;49.964;7.890;2023-06-22T07:37:36;12.45;;;11.40;;
15295;SDS011;7749;49.964;7.890;2023-06-22T07:40:04;11.43;;;10.45;;
15295;SDS011;7749;49.964;7.890;2023-06-22T07:42:33;12.10;;;10.88;;
15295;SDS011;7749;49.964;7.890;2023-06-22T07:45:02;11.85;;;10.65;;
15295;SDS011;7749;49.964;7.890;2023-06-22T07:47:30;11.50;;;10.40;;
15295;SDS011;7749;49.964;7.890;2023-06-22T07:50:02;11.32;;;10.30;;
15295;SDS011;7749;49.964;7.890;2023-06-22T07:52:30;11.82;;;10.73;;
15295;SDS011;7749;49.964;7.890;2023-06-22T07:54:58;10.98;;;10.07;;
15295;SDS011;7749;49.964;7.890;2023-06-22T07:57:26;11.48;;;10.20;;
15295;SDS011;7749;49.964;7.890;2023-06-22T08:00:00;13.82;;;10.52;;
15295;SDS011;7749;49.964;7.890;2023-06-22T08:02:28;10.55;;;9.40;;
15295;SDS011;7749;49.964;7.890;2023-06-22T08:04:55;9.98;;;9.00;;
15295;SDS011;7749;49.964;7.890;2023-06-22T08:07:36;11.10;;;9.98;;
15295;SDS011;7749;49.964;7.890;2023-06-22T08:10:04;10.55;;;9.55;;
15295;SDS011;7749;49.964;7.890;2023-06-22T08:12:33;10.55;;;9.55;;
15295;SDS011;7749;49.964;7.890;2023-06-22T08:15:00;9.73;;;8.73;;
15295;SDS011;7749;49.964;7.890;2023-06-22T08:17:29;11.15;;;9.70;;
15295;SDS011;7749;49.964;7.890;2023-06-22T08:19:58;10.93;;;9.02;;
15295;SDS011;7749;49.964;7.890;2023-06-22T08:22:25;10.23;;;9.30;;
15295;SDS011;7749;49.964;7.890;2023-06-22T08:24:52;9.57;;;8.70;;
15295;SDS011;7749;49.964;7.890;2023-06-22T08:27:20;9.27;;;8.48;;
15295;SDS011;7749;49.964;7.890;2023-06-22T08:29:50;15.73;;;9.73;;
15295;SDS011;7749;49.964;7.890;2023-06-22T08:32:20;11.63;;;8.98;;
15295;SDS011;7749;49.964;7.890;2023-06-22T08:34:48;9.75;;;8.63;;
15295;SDS011;7749;49.964;7.890;2023-06-22T08:37:16;12.88;;;8.88;;
15295;SDS011;7749;49.964;7.890;2023-06-22T08:39:43;11.23;;;9.25;;
15295;SDS011;7749;49.964;7.890;2023-06-22T08:42:10;9.82;;;8.82;;
15295;SDS011;7749;49.964;7.890;2023-06-22T08:44:38;9.73;;;8.73;;
15295;SDS011;7749;49.964;7.890;2023-06-22T08:47:06;9.65;;;8.68;;
15295;SDS011;7749;49.964;7.890;2023-06-22T08:49:33;9.93;;;9.00;;
15295;SDS011;7749;49.964;7.890;2023-06-22T08:52:01;9.20;;;8.40;;
15295;SDS011;7749;49.964;7.890;2023-06-22T08:54:28;9.73;;;8.73;;
15295;SDS011;7749;49.964;7.890;2023-06-22T08:56:56;9.65;;;8.85;;
15295;SDS011;7749;49.964;7.890;2023-06-22T08:59:23;9.18;;;8.40;;
15295;SDS011;7749;49.964;7.890;2023-06-22T09:01:51;11.88;;;8.65;;
15295;SDS011;7749;49.964;7.890;2023-06-22T09:04:18;8.52;;;7.75;;
15295;SDS011;7749;49.964;7.890;2023-06-22T09:06:49;9.65;;;8.57;;
15295;SDS011;7749;49.964;7.890;2023-06-22T09:09:21;10.00;;;9.18;;
15295;SDS011;7749;49.964;7.890;2023-06-22T09:11:49;9.02;;;8.13;;
15295;SDS011;7749;49.964;7.890;2023-06-22T09:14:16;8.68;;;7.88;;
15295;SDS011;7749;49.964;7.890;2023-06-22T09:16:44;9.95;;;9.15;;
15295;SDS011;7749;49.964;7.890;2023-06-22T09:19:11;9.25;;;8.35;;
15295;SDS011;7749;49.964;7.890;2023-06-22T09:21:39;10.68;;;8.90;;
15295;SDS011;7749;49.964;7.890;2023-06-22T09:24:07;9.93;;;8.90;;
15295;SDS011;7749;49.964;7.890;2023-06-22T09:26:35;9.68;;;8.82;;
15295;SDS011;7749;49.964;7.890;2023-06-22T09:29:04;9.15;;;8.25;;
15295;SDS011;7749;49.964;7.890;2023-06-22T09:31:32;10.40;;;9.40;;
15295;SDS011;7749;49.964;7.890;2023-06-22T09:34:00;9.15;;;8.25;;
15295;SDS011;7749;49.964;7.890;2023-06-22T09:36:27;9.57;;;8.68;;
15295;SDS011;7749;49.964;7.890;2023-06-22T09:38:55;9.57;;;8.75;;
15295;SDS011;7749;49.964;7.890;2023-06-22T09:41:25;9.55;;;8.57;;
15295;SDS011;7749;49.964;7.890;2023-06-22T09:43:52;9.50;;;8.60;;
15295;SDS011;7749;49.964;7.890;2023-06-22T09:46:22;9.25;;;8.55;;
15295;SDS011;7749;49.964;7.890;2023-06-22T09:48:53;9.88;;;8.90;;
15295;SDS011;7749;49.964;7.890;2023-06-22T09:51:20;9.43;;;8.63;;
15295;SDS011;7749;49.964;7.890;2023-06-22T09:53:51;9.60;;;8.70;;
15295;SDS011;7749;49.964;7.890;2023-06-22T09:56:22;9.60;;;8.60;;
15295;SDS011;7749;49.964;7.890;2023-06-22T09:58:49;12.40;;;11.20;;
15295;SDS011;7749;49.964;7.890;2023-06-22T10:01:20;9.77;;;8.98;;
15295;SDS011;7749;49.964;7.890;2023-06-22T10:03:48;11.02;;;10.00;;
15295;SDS011;7749;49.964;7.890;2023-06-22T10:06:16;10.43;;;9.20;;
15295;SDS011;7749;49.964;7.890;2023-06-22T10:08:44;10.07;;;9.27;;
15295;SDS011;7749;49.964;7.890;2023-06-22T10:11:11;10.38;;;9.32;;
15295;SDS011;7749;49.964;7.890;2023-06-22T10:13:38;9.70;;;8.90;;
15295;SDS011;7749;49.964;7.890;2023-06-22T10:16:06;9.50;;;8.73;;
15295;SDS011;7749;49.964;7.890;2023-06-22T10:18:34;9.57;;;8.55;;
15295;SDS011;7749;49.964;7.890;2023-06-22T10:21:01;10.45;;;9.30;;
15295;SDS011;7749;49.964;7.890;2023-06-22T10:23:29;10.40;;;9.43;;
15295;SDS011;7749;49.964;7.890;2023-06-22T10:25:56;9.70;;;8.77;;
15295;SDS011;7749;49.964;7.890;2023-06-22T10:28:25;9.23;;;8.32;;
15295;SDS011;7749;49.964;7.890;2023-06-22T10:30:52;9.60;;;8.73;;
15295;SDS011;7749;49.964;7.890;2023-06-22T10:33:20;9.60;;;8.63;;
15295;SDS011;7749;49.964;7.890;2023-06-22T10:35:48;9.43;;;8.50;;
15295;SDS011;7749;49.964;7.890;2023-06-22T10:38:15;8.93;;;8.10;;
15295;SDS011;7749;49.964;7.890;2023-06-22T10:40:43;9.55;;;8.65;;
15295;SDS011;7749;49.964;7.890;2023-06-22T10:43:10;9.18;;;8.27;;
15295;SDS011;7749;49.964;7.890;2023-06-22T10:45:39;8.93;;;8.07;;
15295;SDS011;7749;49.964;7.890;2023-06-22T10:48:06;8.85;;;8.15;;
15295;SDS011;7749;49.964;7.890;2023-06-22T10:50:34;8.10;;;7.38;;
15295;SDS011;7749;49.964;7.890;2023-06-22T10:53:01;9.40;;;7.82;;
15295;SDS011;7749;49.964;7.890;2023-06-22T10:55:28;9.13;;;8.23;;
15295;SDS011;7749;49.964;7.890;2023-06-22T10:58:13;10.95;;;8.48;;
15295;SDS011;7749;49.964;7.890;2023-06-22T11:00:40;8.50;;;7.70;;
15295;SDS011;7749;49.964;7.890;2023-06-22T11:03:08;9.30;;;8.32;;
15295;SDS011;7749;49.964;7.890;2023-06-22T11:05:38;8.88;;;8.02;;
15295;SDS011;7749;49.964;7.890;2023-06-22T11:08:05;8.60;;;7.53;;
15295;SDS011;7749;49.964;7.890;2023-06-22T11:10:33;8.00;;;7.22;;
15295;SDS011;7749;49.964;7.890;2023-06-22T11:13:00;8.15;;;7.45;;
15295;SDS011;7749;49.964;7.890;2023-06-22T11:15:29;8.70;;;7.68;;
15295;SDS011;7749;49.964;7.890;2023-06-22T11:17:57;8.80;;;7.72;;
15295;SDS011;7749;49.964;7.890;2023-06-22T11:20:24;8.10;;;7.32;;
15295;SDS011;7749;49.964;7.890;2023-06-22T11:22:52;10.63;;;7.47;;
15295;SDS011;7749;49.964;7.890;2023-06-22T11:25:19;8.43;;;7.72;;
15295;SDS011;7749;49.964;7.890;2023-06-22T11:27:47;8.10;;;7.30;;
15295;SDS011;7749;49.964;7.890;2023-06-22T11:30:14;8.77;;;7.90;;
15295;SDS011;7749;49.964;7.890;2023-06-22T11:32:42;8.43;;;7.72;;
15295;SDS011;7749;49.964;7.890;2023-06-22T11:35:09;8.98;;;8.05;;
15295;SDS011;7749;49.964;7.890;2023-06-22T11:37:37;9.70;;;8.80;;
15295;SDS011;7749;49.964;7.890;2023-06-22T11:40:05;9.27;;;8.48;;
15295;SDS011;7749;49.964;7.890;2023-06-22T11:42:36;9.07;;;8.27;;
15295;SDS011;7749;49.964;7.890;2023-06-22T11:45:04;10.45;;;9.40;;
15295;SDS011;7749;49.964;7.890;2023-06-22T11:47:33;9.60;;;8.82;;
15295;SDS011;7749;49.964;7.890;2023-06-22T11:50:01;9.88;;;8.98;;
15295;SDS011;7749;49.964;7.890;2023-06-22T11:52:29;10.27;;;9.38;;
15295;SDS011;7749;49.964;7.890;2023-06-22T11:54:57;8.65;;;7.95;;
15295;SDS011;7749;49.964;7.890;2023-06-22T11:57:26;9.75;;;8.85;;
15295;SDS011;7749;49.964;7.890;2023-06-22T11:59:53;10.02;;;8.85;;
15295;SDS011;7749;49.964;7.890;2023-06-22T12:02:21;9.77;;;8.70;;
15295;SDS011;7749;49.964;7.890;2023-06-22T12:04:48;9.50;;;8.55;;
15295;SDS011;7749;49.964;7.890;2023-06-22T12:07:19;9.32;;;8.63;;
15295;SDS011;7749;49.964;7.890;2023-06-22T12:09:46;9.45;;;8.60;;
15295;SDS011;7749;49.964;7.890;2023-06-22T12:12:14;9.65;;;8.70;;
15295;SDS011;7749;49.964;7.890;2023-06-22T12:14:41;9.48;;;8.52;;
15295;SDS011;7749;49.964;7.890;2023-06-22T12:17:09;11.00;;;8.45;;
15295;SDS011;7749;49.964;7.890;2023-06-22T12:19:36;9.30;;;8.40;;
15295;SDS011;7749;49.964;7.890;2023-06-22T12:22:03;8.90;;;8.10;;
15295;SDS011;7749;49.964;7.890;2023-06-22T12:24:31;8.23;;;7.38;;
15295;SDS011;7749;49.964;7.890;2023-06-22T12:26:58;9.20;;;8.10;;
15295;SDS011;7749;49.964;7.890;2023-06-22T12:29:26;9.80;;;9.00;;
15295;SDS011;7749;49.964;7.890;2023-06-22T12:31:54;10.77;;;8.43;;
15295;SDS011;7749;49.964;7.890;2023-06-22T12:34:21;12.73;;;8.93;;
15295;SDS011;7749;49.964;7.890;2023-06-22T12:36:49;9.65;;;8.02;;
15295;SDS011;7749;49.964;7.890;2023-06-22T12:39:16;8.90;;;8.02;;
15295;SDS011;7749;49.964;7.890;2023-06-22T12:41:44;8.45;;;7.72;;
15295;SDS011;7749;49.964;7.890;2023-06-22T12:44:11;8.82;;;7.82;;
15295;SDS011;7749;49.964;7.890;2023-06-22T12:46:39;8.50;;;7.43;;
15295;SDS011;7749;49.964;7.890;2023-06-22T12:49:06;8.75;;;7.65;;
15295;SDS011;7749;49.964;7.890;2023-06-22T12:51:38;8.43;;;7.32;;
15295;SDS011;7749;49.964;7.890;2023-06-22T12:54:08;7.55;;;6.90;;
15295;SDS011;7749;49.964;7.890;2023-06-22T12:56:36;8.45;;;7.55;;
15295;SDS011;7749;49.964;7.890;2023-06-22T12:59:04;9.88;;;8.18;;
15295;SDS011;7749;49.964;7.890;2023-06-22T13:01:33;10.43;;;8.45;;
15295;SDS011;7749;49.964;7.890;2023-06-22T13:04:00;9.98;;;7.32;;
15295;SDS011;7749;49.964;7.890;2023-06-22T13:06:28;8.60;;;7.78;;
15295;SDS011;7749;49.964;7.890;2023-06-22T13:08:55;10.00;;;8.00;;
15295;SDS011;7749;49.964;7.890;2023-06-22T13:11:43;9.98;;;8.13;;
15295;SDS011;7749;49.964;7.890;2023-06-22T13:14:10;10.63;;;8.63;;
15295;SDS011;7749;49.964;7.890;2023-06-22T13:16:37;10.30;;;9.38;;
15295;SDS011;7749;49.964;7.890;2023-06-22T13:19:05;8.25;;;7.47;;
15295;SDS011;7749;49.964;7.890;2023-06-22T13:21:34;8.63;;;7.25;;
15295;SDS011;7749;49.964;7.890;2023-06-22T13:24:01;10.07;;;7.43;;
15295;SDS011;7749;49.964;7.890;2023-06-22T13:26:30;7.97;;;6.85;;
15295;SDS011;7749;49.964;7.890;2023-06-22T13:28:58;7.20;;;6.50;;
15295;SDS011;7749;49.964;7.890;2023-06-22T13:31:25;9.10;;;6.30;;
15295;SDS011;7749;49.964;7.890;2023-06-22T13:33:52;11.82;;;6.30;;
15295;SDS011;7749;49.964;7.890;2023-06-22T13:36:21;10.65;;;5.78;;
15295;SDS011;7749;49.964;7.890;2023-06-22T13:38:50;10.15;;;5.78;;
15295;SDS011;7749;49.964;7.890;2023-06-22T13:41:17;6.85;;;5.18;;
15295;SDS011;7749;49.964;7.890;2023-06-22T13:43:45;8.80;;;5.35;;
15295;SDS011;7749;49.964;7.890;2023-06-22T13:46:20;8.43;;;5.65;;
15295;SDS011;7749;49.964;7.890;2023-06-22T13:49:24;9.05;;;5.88;;
15295;SDS011;7749;49.964;7.890;2023-06-22T13:52:08;6.85;;;5.25;;
15295;SDS011;7749;49.964;7.890;2023-06-22T13:55:03;9.65;;;4.95;;
15295;SDS011;7749;49.964;7.890;2023-06-22T13:57:43;8.13;;;5.28;;
15295;SDS011;7749;49.964;7.890;2023-06-22T14:00:22;10.15;;;5.05;;
15295;SDS011;7749;49.964;7.890;2023-06-22T14:02:50;8.32;;;5.20;;
15295;SDS011;7749;49.964;7.890;2023-06-22T14:05:18;10.90;;;5.40;;
15295;SDS011;7749;49.964;7.890;2023-06-22T14:07:51;10.43;;;6.05;;
15295;SDS011;7749;49.964;7.890;2023-06-22T14:10:52;14.35;;;6.53;;
15295;SDS011;7749;49.964;7.890;2023-06-22T14:13:26;7.13;;;5.70;;
15295;SDS011;7749;49.964;7.890;2023-06-22T14:15:56;7.05;;;5.90;;
15295;SDS011;7749;49.964;7.890;2023-06-22T14:18:24;11.65;;;5.78;;
15295;SDS011;7749;49.964;7.890;2023-06-22T14:20:51;11.10;;;5.47;;
15295;SDS011;7749;49.964;7.890;2023-06-22T14:23:21;8.45;;;5.18;;
15295;SDS011;7749;49.964;7.890;2023-06-22T14:25:49;6.38;;;5.00;;
15295;SDS011;7749;49.964;7.890;2023-06-22T14:28:19;12.73;;;4.70;;
15295;SDS011;7749;49.964;7.890;2023-06-22T14:30:47;12.73;;;4.85;;
15295;SDS011;7749;49.964;7.890;2023-06-22T14:33:15;7.43;;;4.43;;
15295;SDS011;7749;49.964;7.890;2023-06-22T14:35:42;13.18;;;4.68;;
15295;SDS011;7749;49.964;7.890;2023-06-22T14:38:10;7.85;;;4.90;;
15295;SDS011;7749;49.964;7.890;2023-06-22T14:40:38;9.95;;;4.72;;
15295;SDS011;7749;49.964;7.890;2023-06-22T14:43:26;9.25;;;4.95;;
15295;SDS011;7749;49.964;7.890;2023-06-22T14:45:54;10.57;;;4.95;;
15295;SDS011;7749;49.964;7.890;2023-06-22T14:48:21;12.05;;;5.15;;
15295;SDS011;7749;49.964;7.890;2023-06-22T14:50:49;9.40;;;4.72;;
15295;SDS011;7749;49.964;7.890;2023-06-22T14:53:16;10.23;;;4.15;;
15295;SDS011;7749;49.964;7.890;2023-06-22T14:55:44;10.15;;;4.88;;
15295;SDS011;7749;49.964;7.890;2023-06-22T14:58:12;11.25;;;4.75;;
15295;SDS011;7749;49.964;7.890;2023-06-22T15:00:39;10.93;;;5.07;;
15295;SDS011;7749;49.964;7.890;2023-06-22T15:03:07;8.50;;;4.40;;
15295;SDS011;7749;49.964;7.890;2023-06-22T15:05:45;7.20;;;4.28;;
15295;SDS011;7749;49.964;7.890;2023-06-22T15:08:13;10.25;;;4.72;;
15295;SDS011;7749;49.964;7.890;2023-06-22T15:10:40;10.00;;;4.53;;
15295;SDS011;7749;49.964;7.890;2023-06-22T15:13:08;13.50;;;4.80;;